Nearby METAR Reports

 

KCIC - Chico Municipal, California, USA
Distance from station: SSW 12mi, 20km
Updated: Fri, 19-Oct-2018 11:35pm PDT
Clear
Clear
 Wind from NE
Wind: NE 8 mph , 13 km/h
Temperature: 66°F , 19°C
Dew Point: 23°F , -5°C
Humidity: 19%
Barometer: 30.03 inHg , 1016.9 hPa
Clouds: Clear
Visibility: 10 miles , 16 km
2018/10/20 06:35 KCIC 200635Z AUTO 05007KT 10SM CLR 19/M05 A3003 RMK AO1
KOVE - Oroville, California, USA
Distance from station: SSE 31mi, 50km
Updated: Fri, 19-Oct-2018 10:53pm PDT
Clear
Clear
 Wind from ENE
Wind: ENE 5 mph , 7 km/h
Temperature: 61°F , 16°C
Dew Point: 41°F , 5°C
Humidity: 48%
Barometer: 30.03 inHg , 1016.9 hPa
Clouds: Clear
Visibility: 10 miles , 16 km
2018/10/20 05:53 KOVE 200553Z AUTO 07004KT 10SM CLR 16/05 A3003 RMK AO2 SLP169 T01610050 10283 20150 51004
 
KRBL - Red Bluff, California, USA
Distance from station: WNW 31mi, 50km
Updated: Fri, 19-Oct-2018 10:54pm PDT
Clear
Clear
 Wind from WNW
Wind: WNW 7 mph , 11 km/h
Temperature: 61°F , 16°C
Dew Point: 30°F , -1°C
Humidity: 31%
Barometer: 30.03 inHg , 1016.9 hPa
Clouds: Clear
Visibility: 10 miles , 16 km
2018/10/20 05:54 KRBL 200554Z AUTO 30006KT 10SM CLR 16/M01 A3003 RMK AO2 SLP167 T01561006 10322 20156 51008
KRDD - Redding, California, USA
Distance from station: NW 50mi, 80km
Updated: Fri, 19-Oct-2018 10:53pm PDT
Clear
Clear
 Wind from calm
Wind: Calm
Temperature: 61°F , 16°C
Dew Point: 34°F , 1°C
Humidity: 36%
Barometer: 30.03 inHg , 1016.9 hPa
Clouds: Clear
Visibility: 10 miles , 16 km
2018/10/20 05:53 KRDD 200553Z AUTO 00000KT 10SM CLR 16/01 A3003 RMK AO2 SLP166 T01610011 10328 20156 51009
 
KMYV - Marysville, California, USA
Distance from station: S 59mi, 95km
Updated: Fri, 19-Oct-2018 10:53pm PDT
Clear
Clear
 Wind from calm
Wind: Calm
Temperature: 55°F , 13°C
Dew Point: 41°F , 5°C
Humidity: 59%
Barometer: 30.01 inHg , 1016.3 hPa
Clouds: Clear
Visibility: 10 miles , 16 km
2018/10/20 05:53 KMYV 200553Z AUTO 00000KT 10SM CLR 13/05 A3001 RMK AO2 SLP167 T01280050 10289 20122 53004
KBAB - Beale Afb/Marysv, California, USA
Distance from station: SSE 59mi, 96km
Updated: Fri, 19-Oct-2018 10:58pm PDT
Clear
Clear
 Wind from E
Wind: E 6 mph , 9 km/h
Temperature: 59°F , 15°C
Dew Point: 39°F , 4°C
Humidity: 48%
Barometer: 29.99 inHg , 1015.6 hPa
Clouds: Clear
Visibility: 10 miles , 16 km
2018/10/20 05:58 KBAB 200558Z AUTO 09005KT 10SM CLR 15/04 A2999 RMK AO2 SLP158 T01450039 10277 20135 50001 $
 
KGOO - Grass Valley, California, USA
Distance from station: SE 63mi, 102km
Updated: Fri, 19-Oct-2018 11:40pm PDT
Clear
Clear
 Wind from E
Wind: E 7 mph , 11 km/h
Temperature: 70°F , 21°C
Dew Point: 18°F , -8°C
Humidity: 13%
Barometer: 30.13 inHg , 1020.3 hPa
Clouds: Clear
Visibility: 10 miles , 16 km
2018/10/20 06:40 KGOO 200640Z AUTO 10006KT 10SM CLR 21/M08 A3013 RMK AO1
KBLU - Emigrant Gap, California, USA
Distance from station: SE 71mi, 115km
Updated: Fri, 19-Oct-2018 10:52pm PDT
Clear
Clear
 Wind from ENE
Wind: ENE 14 mph , 22 km/h, Gust: 25 mph , 41 km/h
Temperature: 61°F , 16°C
Dew Point: 18°F , -8°C
Humidity: 19%
Barometer: 30.26 inHg , 1024.7 hPa
Clouds: Clear
Visibility: 10 miles , 16 km
2018/10/20 05:52 KBLU 200552Z AUTO 06012G22KT 020V090 10SM CLR 16/M08 A3026 RMK AO2 SLP169 T01561083 10206 20144 55003
 
KLHM - Lincoln, California, USA
Distance from station: SSE 74mi, 119km
Updated: Fri, 19-Oct-2018 11:35pm PDT
Clear
Clear
 Wind from ENE
Wind: ENE 6 mph , 9 km/h
Temperature: 50°F , 10°C
Wind Chill: 48°F , 9°C
Dew Point: 39°F , 4°C
Humidity: 67%
Barometer: 30.00 inHg , 1015.9 hPa
Clouds: Clear
Visibility: 10 miles , 16 km
2018/10/20 06:35 KLHM 200635Z AUTO 06005KT 10SM CLR 10/04 A3000 RMK AO1
KAUN - Auburn Muni, California, USA
Distance from station: SSE 77mi, 123km
Updated: Fri, 19-Oct-2018 11:35pm PDT
Clear
Clear
 Wind from calm
Wind: Calm
Temperature: 54°F , 12°C
Dew Point: 34°F , 1°C
Humidity: 47%
Barometer: 30.05 inHg , 1017.6 hPa
Clouds: Clear
Visibility: 10 miles , 16 km
2018/10/20 06:35 KAUN 200635Z AUTO 00000KT 10SM CLR 12/01 A3005 RMK A01
 
KO54 - Weaverville, California, USA
Distance from station: NW 84mi, 135km
Updated: Fri, 19-Oct-2018 11:35pm PDT
Clear
Clear
 Wind from NNE
Wind: NNE 3 mph , 6 km/h
Temperature: 46°F , 8°C
Dew Point: 27°F , -3°C
Humidity: 46%
Barometer: 30.16 inHg , 1021.3 hPa
Clouds: Clear
Visibility: 10 miles , 16 km
2018/10/20 06:35 KO54 200635Z AUTO 02003KT 10SM CLR 08/M03 A3016 RMK AO1
KSMF - Sacramento/Metro, California, USA
Distance from station: S 86mi, 139km
Updated: Fri, 19-Oct-2018 10:53pm PDT
Clear
Clear
 Wind from NE
Wind: NE 5 mph , 7 km/h
Temperature: 54°F , 12°C
Dew Point: 45°F , 7°C
Humidity: 72%
Barometer: 29.99 inHg , 1015.6 hPa
Clouds: Clear
Visibility: 10 miles , 16 km
2018/10/20 05:53 KSMF 200553Z 05004KT 10SM CLR 12/07 A2999 RMK AO2 SLP156 T01220067 10283 20117 55002
 
KMCC - Mcclellan Afb, California, USA
Distance from station: SSE 90mi, 145km
Updated: Fri, 19-Oct-2018 11:35pm PDT
Clear
Clear
 Wind from calm
Wind: Calm
Temperature: 63°F , 17°C
Dew Point: 45°F , 7°C
Humidity: 52%
Barometer: 30.02 inHg , 1016.6 hPa
Clouds: Clear
Visibility: 10 miles , 16 km
2018/10/20 06:35 KMCC 200635Z AUTO 00000KT 10SM CLR 17/07 A3002 RMK AO2
KTRK - Truckee Tahoe, California, USA
Distance from station: ESE 96mi, 155km
Updated: Fri, 19-Oct-2018 11:35pm PDT
Clear
Clear
 Wind from calm
Wind: Calm
Temperature: 32°F , 0°C
Dew Point: 19°F , -7°C
Humidity: 60%
Barometer: 30.34 inHg , 1027.4 hPa
Clouds: Clear
Visibility: 10 miles , 16 km
2018/10/20 06:35 KTRK 200635Z AUTO 00000KT 10SM CLR 00/M07 A3034 RMK AO2
 
KUKI - Ukiah, California, USA
Distance from station: SW 97mi, 156km
Updated: Fri, 19-Oct-2018 10:56pm PDT
Clear
Clear
 Wind from calm
Wind: Calm
Temperature: 55°F , 13°C
Dew Point: 43°F , 6°C
Humidity: 63%
Barometer: 30.05 inHg , 1017.6 hPa
Clouds: Clear
Visibility: 10 miles , 16 km
2018/10/20 05:56 KUKI 200556Z AUTO 00000KT 10SM CLR 13/06 A3005 RMK AO2 SLP172 T01280056 10294 20122 53003
KEDU - Davis, California, USA
Distance from station: S 97mi, 157km
Updated: Fri, 19-Oct-2018 11:35pm PDT
Clear
Clear
 Wind from calm
Wind: Calm
Temperature: 55°F , 13°C
Dew Point: 39°F , 4°C
Humidity: 55%
Barometer: 30.00 inHg , 1015.9 hPa
Clouds: Clear
Visibility: 10 miles , 16 km
2018/10/20 06:35 KEDU 200635Z AUTO 00000KT 10SM CLR 13/04 A3000 RMK AO1
 
KMHR - Mather Field, California, USA
Distance from station: SSE 100mi, 161km
Updated: Fri, 19-Oct-2018 10:45pm PDT
Clear
Clear
 Wind from ENE
Wind: ENE 5 mph , 7 km/h
Temperature: 55°F , 13°C
Dew Point: 41°F , 5°C
Humidity: 59%
Barometer: 30.00 inHg , 1015.9 hPa
Clouds: Clear
Visibility: 10 miles , 16 km
2018/10/20 05:45 KMHR 200545Z 07004KT 10SM SKC 13/05 A3000
KMHS - Mount Shasta, California, USA
Distance from station: NNW 100mi, 161km
Updated: Fri, 19-Oct-2018 10:56pm PDT
Clear
Clear
 Wind from calm
Wind: Calm
Temperature: 43°F , 6°C
Dew Point: 30°F , -1°C
Humidity: 61%
Barometer: 30.24 inHg , 1024 hPa
Clouds: Clear
Visibility: 10 miles , 16 km
2018/10/20 05:56 KMHS 200556Z AUTO 00000KT 10SM CLR 06/M01 A3024 RMK AO2 SLP245 T00611006 10222 20061 53002
 
KRTS - Reno/Stead, Nevada, USA
Distance from station: E 100mi, 161km
Updated: Fri, 19-Oct-2018 11:35pm PDT
Clear
Clear
 Wind from NNW
Wind: NNW 5 mph , 7 km/h
Temperature: 39°F , 4°C
Wind Chill: 35°F , 2°C
Dew Point: 14°F , -10°C
Humidity: 36%
Barometer: 30.32 inHg , 1026.8 hPa
Clouds: Clear
Visibility: 10 miles , 16 km
2018/10/20 06:35 KRTS 200635Z AUTO 34004KT 10SM CLR 04/M10 A3032 RMK AO2
KSAC - Sacramento, California, USA
Distance from station: S 100mi, 162km
Updated: Fri, 19-Oct-2018 10:53pm PDT
Clear
Clear
 Wind from SE
Wind: SE 3 mph , 6 km/h
Temperature: 57°F , 14°C
Dew Point: 46°F , 8°C
Humidity: 67%
Barometer: 30.00 inHg , 1015.9 hPa
Clouds: Clear
Visibility: 10 miles , 16 km
2018/10/20 05:53 KSAC 200553Z AUTO 13003KT 10SM CLR 14/08 A3000 RMK AO2 SLP159 T01390078 10283 20133 55002